sensor_id;sensor_type;location;lat;lon;timestamp;P1;durP1;ratioP1;P2;durP2;ratioP2
26578;SDS011;14227;47.674;19.320;2023-05-06T00:00:50;62.38;;;38.03;;
26578;SDS011;14227;47.674;19.320;2023-05-06T00:03:16;57.33;;;32.83;;
26578;SDS011;14227;47.674;19.320;2023-05-06T00:05:41;52.75;;;30.58;;
26578;SDS011;14227;47.674;19.320;2023-05-06T00:08:09;48.03;;;29.80;;
26578;SDS011;14227;47.674;19.320;2023-05-06T00:10:35;43.33;;;24.15;;
26578;SDS011;14227;47.674;19.320;2023-05-06T00:13:01;52.22;;;30.27;;
26578;SDS011;14227;47.674;19.320;2023-05-06T00:15:28;62.70;;;34.45;;
26578;SDS011;14227;47.674;19.320;2023-05-06T00:17:54;42.97;;;25.23;;
26578;SDS011;14227;47.674;19.320;2023-05-06T00:20:20;48.42;;;28.55;;
26578;SDS011;14227;47.674;19.320;2023-05-06T00:22:46;44.25;;;27.23;;
26578;SDS011;14227;47.674;19.320;2023-05-06T00:25:12;44.05;;;27.63;;
26578;SDS011;14227;47.674;19.320;2023-05-06T00:27:38;67.63;;;34.35;;
26578;SDS011;14227;47.674;19.320;2023-05-06T00:30:04;53.92;;;31.45;;
26578;SDS011;14227;47.674;19.320;2023-05-06T00:32:30;54.10;;;31.95;;
26578;SDS011;14227;47.674;19.320;2023-05-06T00:34:56;55.13;;;31.17;;
26578;SDS011;14227;47.674;19.320;2023-05-06T00:37:21;51.85;;;30.00;;
26578;SDS011;14227;47.674;19.320;2023-05-06T00:39:47;64.47;;;34.72;;
26578;SDS011;14227;47.674;19.320;2023-05-06T00:42:13;43.10;;;23.55;;
26578;SDS011;14227;47.674;19.320;2023-05-06T00:44:39;41.65;;;24.52;;
26578;SDS011;14227;47.674;19.320;2023-05-06T00:47:05;45.50;;;28.30;;
26578;SDS011;14227;47.674;19.320;2023-05-06T00:49:32;58.10;;;29.70;;
26578;SDS011;14227;47.674;19.320;2023-05-06T00:51:58;51.95;;;29.10;;
26578;SDS011;14227;47.674;19.320;2023-05-06T00:54:25;32.60;;;21.45;;
26578;SDS011;14227;47.674;19.320;2023-05-06T00:56:51;40.47;;;25.27;;
26578;SDS011;14227;47.674;19.320;2023-05-06T00:59:18;49.03;;;28.92;;
26578;SDS011;14227;47.674;19.320;2023-05-06T01:01:44;48.05;;;28.08;;
26578;SDS011;14227;47.674;19.320;2023-05-06T01:04:11;37.30;;;24.30;;
26578;SDS011;14227;47.674;19.320;2023-05-06T01:06:54;49.92;;;27.33;;
26578;SDS011;14227;47.674;19.320;2023-05-06T01:15:44;53.13;;;29.25;;
26578;SDS011;14227;47.674;19.320;2023-05-06T01:18:09;45.45;;;24.70;;
26578;SDS011;14227;47.674;19.320;2023-05-06T01:20:36;40.85;;;25.40;;
26578;SDS011;14227;47.674;19.320;2023-05-06T01:23:15;32.78;;;21.60;;
26578;SDS011;14227;47.674;19.320;2023-05-06T01:25:41;38.33;;;24.27;;
26578;SDS011;14227;47.674;19.320;2023-05-06T01:28:08;38.75;;;21.77;;
26578;SDS011;14227;47.674;19.320;2023-05-06T01:33:38;39.42;;;24.10;;
26578;SDS011;14227;47.674;19.320;2023-05-06T01:36:22;47.08;;;25.65;;
26578;SDS011;14227;47.674;19.320;2023-05-06T01:42:05;29.52;;;18.17;;
26578;SDS011;14227;47.674;19.320;2023-05-06T01:44:34;34.85;;;21.52;;
26578;SDS011;14227;47.674;19.320;2023-05-06T01:47:03;41.88;;;24.40;;
26578;SDS011;14227;47.674;19.320;2023-05-06T01:49:31;44.38;;;26.15;;
26578;SDS011;14227;47.674;19.320;2023-05-06T01:51:57;39.78;;;24.02;;
26578;SDS011;14227;47.674;19.320;2023-05-06T01:54:23;43.70;;;26.20;;
26578;SDS011;14227;47.674;19.320;2023-05-06T01:56:48;52.47;;;30.20;;
26578;SDS011;14227;47.674;19.320;2023-05-06T01:59:14;56.95;;;30.38;;
26578;SDS011;14227;47.674;19.320;2023-05-06T02:01:40;41.22;;;25.30;;
26578;SDS011;14227;47.674;19.320;2023-05-06T02:04:05;55.17;;;30.45;;
26578;SDS011;14227;47.674;19.320;2023-05-06T02:06:31;37.15;;;22.45;;
26578;SDS011;14227;47.674;19.320;2023-05-06T02:08:57;50.25;;;28.95;;
26578;SDS011;14227;47.674;19.320;2023-05-06T02:11:23;44.72;;;26.88;;
26578;SDS011;14227;47.674;19.320;2023-05-06T02:13:49;39.53;;;23.83;;
26578;SDS011;14227;47.674;19.320;2023-05-06T02:16:15;46.97;;;27.38;;
26578;SDS011;14227;47.674;19.320;2023-05-06T02:18:44;44.33;;;26.38;;
26578;SDS011;14227;47.674;19.320;2023-05-06T02:21:09;31.45;;;19.85;;
26578;SDS011;14227;47.674;19.320;2023-05-06T02:23:35;48.78;;;22.42;;
26578;SDS011;14227;47.674;19.320;2023-05-06T02:26:01;40.63;;;24.80;;
26578;SDS011;14227;47.674;19.320;2023-05-06T02:28:28;48.08;;;24.80;;
26578;SDS011;14227;47.674;19.320;2023-05-06T02:30:57;50.00;;;26.75;;
26578;SDS011;14227;47.674;19.320;2023-05-06T02:33:24;45.47;;;24.00;;
26578;SDS011;14227;47.674;19.320;2023-05-06T02:35:50;45.30;;;23.33;;
26578;SDS011;14227;47.674;19.320;2023-05-06T02:38:16;34.08;;;19.83;;
26578;SDS011;14227;47.674;19.320;2023-05-06T02:40:43;45.95;;;23.63;;
26578;SDS011;14227;47.674;19.320;2023-05-06T02:43:08;32.08;;;20.27;;
26578;SDS011;14227;47.674;19.320;2023-05-06T02:45:34;37.50;;;22.02;;
26578;SDS011;14227;47.674;19.320;2023-05-06T02:48:00;46.47;;;25.83;;
26578;SDS011;14227;47.674;19.320;2023-05-06T02:50:26;44.85;;;26.45;;
26578;SDS011;14227;47.674;19.320;2023-05-06T02:52:53;38.78;;;23.02;;
26578;SDS011;14227;47.674;19.320;2023-05-06T02:55:21;35.30;;;20.10;;
26578;SDS011;14227;47.674;19.320;2023-05-06T02:57:47;42.55;;;24.70;;
26578;SDS011;14227;47.674;19.320;2023-05-06T03:00:13;33.97;;;22.27;;
26578;SDS011;14227;47.674;19.320;2023-05-06T03:02:39;39.08;;;23.75;;
26578;SDS011;14227;47.674;19.320;2023-05-06T03:05:05;36.05;;;22.48;;
26578;SDS011;14227;47.674;19.320;2023-05-06T03:07:31;36.95;;;18.20;;
26578;SDS011;14227;47.674;19.320;2023-05-06T03:09:58;25.13;;;15.80;;
26578;SDS011;14227;47.674;19.320;2023-05-06T03:12:24;40.72;;;21.73;;
26578;SDS011;14227;47.674;19.320;2023-05-06T03:14:52;48.45;;;23.77;;
26578;SDS011;14227;47.674;19.320;2023-05-06T03:17:17;42.80;;;23.17;;
26578;SDS011;14227;47.674;19.320;2023-05-06T03:19:43;41.13;;;23.35;;
26578;SDS011;14227;47.674;19.320;2023-05-06T03:22:09;44.17;;;25.33;;
26578;SDS011;14227;47.674;19.320;2023-05-06T03:24:35;47.92;;;26.85;;
26578;SDS011;14227;47.674;19.320;2023-05-06T03:27:01;50.45;;;26.17;;
26578;SDS011;14227;47.674;19.320;2023-05-06T03:29:27;40.70;;;24.17;;
26578;SDS011;14227;47.674;19.320;2023-05-06T03:31:56;41.40;;;25.17;;
26578;SDS011;14227;47.674;19.320;2023-05-06T03:34:22;45.25;;;24.80;;
26578;SDS011;14227;47.674;19.320;2023-05-06T03:36:47;48.63;;;24.52;;
26578;SDS011;14227;47.674;19.320;2023-05-06T03:39:13;45.72;;;25.02;;
26578;SDS011;14227;47.674;19.320;2023-05-06T03:41:39;55.88;;;26.00;;
26578;SDS011;14227;47.674;19.320;2023-05-06T03:44:04;48.20;;;25.70;;
26578;SDS011;14227;47.674;19.320;2023-05-06T03:46:31;45.13;;;25.98;;
26578;SDS011;14227;47.674;19.320;2023-05-06T03:48:56;46.38;;;26.08;;
26578;SDS011;14227;47.674;19.320;2023-05-06T03:51:24;42.83;;;24.75;;
26578;SDS011;14227;47.674;19.320;2023-05-06T03:53:50;47.88;;;27.20;;
26578;SDS011;14227;47.674;19.320;2023-05-06T03:56:16;46.35;;;26.27;;
26578;SDS011;14227;47.674;19.320;2023-05-06T03:58:42;34.53;;;21.55;;
26578;SDS011;14227;47.674;19.320;2023-05-06T04:01:08;40.50;;;24.75;;
26578;SDS011;14227;47.674;19.320;2023-05-06T04:03:34;33.03;;;22.48;;
26578;SDS011;14227;47.674;19.320;2023-05-06T04:05:59;34.97;;;22.90;;
26578;SDS011;14227;47.674;19.320;2023-05-06T04:08:25;50.40;;;27.60;;
26578;SDS011;14227;47.674;19.320;2023-05-06T04:10:51;42.58;;;26.38;;
26578;SDS011;14227;47.674;19.320;2023-05-06T04:13:18;47.42;;;26.15;;
26578;SDS011;14227;47.674;19.320;2023-05-06T04:15:44;33.25;;;22.30;;
26578;SDS011;14227;47.674;19.320;2023-05-06T04:18:10;35.75;;;23.38;;
26578;SDS011;14227;47.674;19.320;2023-05-06T04:20:36;28.25;;;19.38;;
26578;SDS011;14227;47.674;19.320;2023-05-06T04:23:01;31.60;;;20.60;;
26578;SDS011;14227;47.674;19.320;2023-05-06T04:25:27;26.80;;;18.48;;
26578;SDS011;14227;47.674;19.320;2023-05-06T04:27:53;33.13;;;21.02;;
26578;SDS011;14227;47.674;19.320;2023-05-06T04:30:19;32.35;;;20.33;;
26578;SDS011;14227;47.674;19.320;2023-05-06T04:32:45;32.30;;;20.50;;
26578;SDS011;14227;47.674;19.320;2023-05-06T04:35:11;31.10;;;19.60;;
26578;SDS011;14227;47.674;19.320;2023-05-06T04:37:37;33.83;;;21.73;;
26578;SDS011;14227;47.674;19.320;2023-05-06T04:40:03;33.08;;;21.70;;
26578;SDS011;14227;47.674;19.320;2023-05-06T04:42:29;32.05;;;21.05;;
26578;SDS011;14227;47.674;19.320;2023-05-06T04:44:56;36.35;;;22.98;;
26578;SDS011;14227;47.674;19.320;2023-05-06T04:47:23;47.50;;;32.75;;
26578;SDS011;14227;47.674;19.320;2023-05-06T04:49:49;45.95;;;30.15;;
26578;SDS011;14227;47.674;19.320;2023-05-06T04:52:15;36.92;;;26.45;;
26578;SDS011;14227;47.674;19.320;2023-05-06T04:54:40;39.38;;;25.80;;
26578;SDS011;14227;47.674;19.320;2023-05-06T04:57:06;35.03;;;21.70;;
26578;SDS011;14227;47.674;19.320;2023-05-06T04:59:31;29.05;;;20.95;;
26578;SDS011;14227;47.674;19.320;2023-05-06T05:01:57;30.90;;;19.73;;
26578;SDS011;14227;47.674;19.320;2023-05-06T05:04:23;25.85;;;17.50;;
26578;SDS011;14227;47.674;19.320;2023-05-06T05:06:48;43.72;;;22.77;;
26578;SDS011;14227;47.674;19.320;2023-05-06T05:09:14;28.23;;;19.20;;
26578;SDS011;14227;47.674;19.320;2023-05-06T05:11:40;34.75;;;20.45;;
26578;SDS011;14227;47.674;19.320;2023-05-06T05:14:06;40.63;;;24.55;;
26578;SDS011;14227;47.674;19.320;2023-05-06T05:16:31;36.20;;;24.33;;
26578;SDS011;14227;47.674;19.320;2023-05-06T05:18:57;46.53;;;27.90;;
26578;SDS011;14227;47.674;19.320;2023-05-06T05:21:23;43.55;;;27.83;;
26578;SDS011;14227;47.674;19.320;2023-05-06T05:23:48;41.45;;;26.73;;
26578;SDS011;14227;47.674;19.320;2023-05-06T05:26:14;37.72;;;24.75;;
26578;SDS011;14227;47.674;19.320;2023-05-06T05:28:40;39.05;;;23.40;;
26578;SDS011;14227;47.674;19.320;2023-05-06T05:31:05;39.67;;;22.60;;
26578;SDS011;14227;47.674;19.320;2023-05-06T05:33:31;35.13;;;22.60;;
26578;SDS011;14227;47.674;19.320;2023-05-06T05:35:57;39.80;;;24.30;;
26578;SDS011;14227;47.674;19.320;2023-05-06T05:38:23;35.83;;;21.83;;
26578;SDS011;14227;47.674;19.320;2023-05-06T05:40:48;37.47;;;22.70;;
26578;SDS011;14227;47.674;19.320;2023-05-06T05:43:14;29.98;;;20.77;;
26578;SDS011;14227;47.674;19.320;2023-05-06T05:45:40;30.35;;;19.50;;
26578;SDS011;14227;47.674;19.320;2023-05-06T05:48:06;28.25;;;18.88;;
26578;SDS011;14227;47.674;19.320;2023-05-06T05:50:31;22.08;;;15.30;;
26578;SDS011;14227;47.674;19.320;2023-05-06T05:52:57;26.10;;;17.65;;
26578;SDS011;14227;47.674;19.320;2023-05-06T05:55:22;27.75;;;16.83;;
26578;SDS011;14227;47.674;19.320;2023-05-06T05:57:48;32.55;;;17.77;;
26578;SDS011;14227;47.674;19.320;2023-05-06T06:00:14;30.75;;;14.05;;
26578;SDS011;14227;47.674;19.320;2023-05-06T06:02:40;18.45;;;12.60;;
26578;SDS011;14227;47.674;19.320;2023-05-06T06:05:06;17.90;;;14.02;;
26578;SDS011;14227;47.674;19.320;2023-05-06T06:07:32;18.75;;;13.57;;
26578;SDS011;14227;47.674;19.320;2023-05-06T06:09:58;18.15;;;14.25;;
26578;SDS011;14227;47.674;19.320;2023-05-06T06:12:23;15.50;;;11.27;;
26578;SDS011;14227;47.674;19.320;2023-05-06T06:14:49;15.32;;;10.95;;
26578;SDS011;14227;47.674;19.320;2023-05-06T06:17:15;22.23;;;11.57;;
26578;SDS011;14227;47.674;19.320;2023-05-06T06:19:41;11.90;;;10.18;;
26578;SDS011;14227;47.674;19.320;2023-05-06T06:22:09;14.48;;;8.88;;
26578;SDS011;14227;47.674;19.320;2023-05-06T06:24:35;10.93;;;8.52;;
26578;SDS011;14227;47.674;19.320;2023-05-06T06:27:00;12.30;;;9.10;;
26578;SDS011;14227;47.674;19.320;2023-05-06T06:29:26;13.02;;;8.40;;
26578;SDS011;14227;47.674;19.320;2023-05-06T06:31:52;13.50;;;6.90;;
26578;SDS011;14227;47.674;19.320;2023-05-06T06:34:20;15.05;;;6.85;;
26578;SDS011;14227;47.674;19.320;2023-05-06T06:36:46;15.80;;;6.18;;
26578;SDS011;14227;47.674;19.320;2023-05-06T06:39:11;14.75;;;6.32;;
26578;SDS011;14227;47.674;19.320;2023-05-06T06:41:37;13.60;;;6.50;;
26578;SDS011;14227;47.674;19.320;2023-05-06T06:44:04;14.50;;;6.53;;
26578;SDS011;14227;47.674;19.320;2023-05-06T06:46:30;14.60;;;6.22;;
26578;SDS011;14227;47.674;19.320;2023-05-06T06:48:55;12.35;;;5.72;;
26578;SDS011;14227;47.674;19.320;2023-05-06T06:51:21;12.70;;;5.38;;
26578;SDS011;14227;47.674;19.320;2023-05-06T06:53:47;7.55;;;5.32;;
26578;SDS011;14227;47.674;19.320;2023-05-06T06:56:13;9.82;;;5.20;;
26578;SDS011;14227;47.674;19.320;2023-05-06T06:58:40;9.35;;;4.75;;
26578;SDS011;14227;47.674;19.320;2023-05-06T07:01:06;8.15;;;4.82;;
26578;SDS011;14227;47.674;19.320;2023-05-06T07:03:32;7.97;;;4.68;;
26578;SDS011;14227;47.674;19.320;2023-05-06T07:05:57;8.95;;;5.10;;
26578;SDS011;14227;47.674;19.320;2023-05-06T07:08:23;7.25;;;5.22;;
26578;SDS011;14227;47.674;19.320;2023-05-06T07:10:49;7.95;;;5.40;;
26578;SDS011;14227;47.674;19.320;2023-05-06T07:13:15;8.05;;;5.50;;
26578;SDS011;14227;47.674;19.320;2023-05-06T07:15:40;11.85;;;4.93;;
26578;SDS011;14227;47.674;19.320;2023-05-06T07:18:06;8.07;;;5.13;;
26578;SDS011;14227;47.674;19.320;2023-05-06T07:20:33;9.52;;;4.93;;
26578;SDS011;14227;47.674;19.320;2023-05-06T07:23:00;14.60;;;5.55;;
26578;SDS011;14227;47.674;19.320;2023-05-06T07:25:25;7.20;;;5.10;;
26578;SDS011;14227;47.674;19.320;2023-05-06T07:27:52;6.97;;;5.20;;
26578;SDS011;14227;47.674;19.320;2023-05-06T07:30:17;10.20;;;5.82;;
26578;SDS011;14227;47.674;19.320;2023-05-06T07:32:44;7.50;;;5.28;;
26578;SDS011;14227;47.674;19.320;2023-05-06T07:35:10;13.35;;;5.90;;
26578;SDS011;14227;47.674;19.320;2023-05-06T07:37:35;8.95;;;5.38;;
26578;SDS011;14227;47.674;19.320;2023-05-06T07:40:01;9.85;;;5.45;;
26578;SDS011;14227;47.674;19.320;2023-05-06T07:42:27;13.10;;;5.53;;
26578;SDS011;14227;47.674;19.320;2023-05-06T07:44:52;9.68;;;5.97;;
26578;SDS011;14227;47.674;19.320;2023-05-06T07:47:25;10.32;;;5.53;;
26578;SDS011;14227;47.674;19.320;2023-05-06T07:49:53;9.70;;;5.35;;
26578;SDS011;14227;47.674;19.320;2023-05-06T07:52:19;9.75;;;5.47;;
26578;SDS011;14227;47.674;19.320;2023-05-06T07:54:45;8.25;;;5.13;;
26578;SDS011;14227;47.674;19.320;2023-05-06T07:57:11;5.40;;;4.60;;
26578;SDS011;14227;47.674;19.320;2023-05-06T07:59:37;10.73;;;5.53;;
26578;SDS011;14227;47.674;19.320;2023-05-06T08:02:03;6.47;;;5.20;;
26578;SDS011;14227;47.674;19.320;2023-05-06T08:04:28;11.05;;;5.10;;
26578;SDS011;14227;47.674;19.320;2023-05-06T08:06:54;5.82;;;4.57;;
26578;SDS011;14227;47.674;19.320;2023-05-06T08:09:20;5.70;;;4.28;;
26578;SDS011;14227;47.674;19.320;2023-05-06T08:11:46;7.82;;;4.55;;
26578;SDS011;14227;47.674;19.320;2023-05-06T08:14:13;9.18;;;4.68;;
26578;SDS011;14227;47.674;19.320;2023-05-06T08:16:39;8.85;;;4.63;;
26578;SDS011;14227;47.674;19.320;2023-05-06T08:19:05;8.98;;;4.30;;
26578;SDS011;14227;47.674;19.320;2023-05-06T08:21:30;5.75;;;4.22;;
26578;SDS011;14227;47.674;19.320;2023-05-06T08:23:56;4.60;;;4.18;;
26578;SDS011;14227;47.674;19.320;2023-05-06T08:26:23;8.55;;;4.20;;
26578;SDS011;14227;47.674;19.320;2023-05-06T08:28:49;7.25;;;3.78;;
26578;SDS011;14227;47.674;19.320;2023-05-06T08:31:14;5.40;;;3.75;;
26578;SDS011;14227;47.674;19.320;2023-05-06T08:33:40;13.15;;;5.03;;
26578;SDS011;14227;47.674;19.320;2023-05-06T08:36:06;9.63;;;4.82;;
26578;SDS011;14227;47.674;19.320;2023-05-06T08:38:31;10.93;;;4.55;;
26578;SDS011;14227;47.674;19.320;2023-05-06T08:40:57;7.07;;;4.60;;
26578;SDS011;14227;47.674;19.320;2023-05-06T08:43:27;26.73;;;6.65;;
26578;SDS011;14227;47.674;19.320;2023-05-06T08:45:55;9.60;;;4.80;;
26578;SDS011;14227;47.674;19.320;2023-05-06T08:48:21;8.73;;;4.90;;
26578;SDS011;14227;47.674;19.320;2023-05-06T08:50:47;11.00;;;5.25;;
26578;SDS011;14227;47.674;19.320;2023-05-06T08:53:13;6.28;;;5.20;;
26578;SDS011;14227;47.674;19.320;2023-05-06T08:55:41;8.55;;;4.53;;
26578;SDS011;14227;47.674;19.320;2023-05-06T08:58:07;8.80;;;5.05;;
26578;SDS011;14227;47.674;19.320;2023-05-06T09:00:35;6.97;;;4.32;;
26578;SDS011;14227;47.674;19.320;2023-05-06T09:03:01;6.53;;;3.90;;
26578;SDS011;14227;47.674;19.320;2023-05-06T09:05:27;5.93;;;4.47;;
26578;SDS011;14227;47.674;19.320;2023-05-06T09:07:53;8.55;;;5.18;;
26578;SDS011;14227;47.674;19.320;2023-05-06T09:10:19;9.15;;;4.78;;
26578;SDS011;14227;47.674;19.320;2023-05-06T09:12:44;8.07;;;4.40;;
26578;SDS011;14227;47.674;19.320;2023-05-06T09:15:10;8.82;;;4.63;;
26578;SDS011;14227;47.674;19.320;2023-05-06T09:17:36;8.35;;;4.53;;
26578;SDS011;14227;47.674;19.320;2023-05-06T09:20:02;7.47;;;4.63;;
26578;SDS011;14227;47.674;19.320;2023-05-06T09:22:32;8.32;;;4.60;;
26578;SDS011;14227;47.674;19.320;2023-05-06T09:24:58;8.82;;;5.30;;
26578;SDS011;14227;47.674;19.320;2023-05-06T09:32:33;4.97;;;4.40;;
26578;SDS011;14227;47.674;19.320;2023-05-06T09:34:59;10.07;;;5.35;;
26578;SDS011;14227;47.674;19.320;2023-05-06T09:37:26;87.57;;;8.25;;
26578;SDS011;14227;47.674;19.320;2023-05-06T09:39:53;36.13;;;20.42;;
26578;SDS011;14227;47.674;19.320;2023-05-06T09:42:20;6.63;;;5.30;;
26578;SDS011;14227;47.674;19.320;2023-05-06T09:44:47;6.45;;;4.68;;
26578;SDS011;14227;47.674;19.320;2023-05-06T09:47:13;8.23;;;4.13;;
26578;SDS011;14227;47.674;19.320;2023-05-06T09:49:39;9.95;;;4.10;;
26578;SDS011;14227;47.674;19.320;2023-05-06T09:52:06;7.47;;;3.92;;
26578;SDS011;14227;47.674;19.320;2023-05-06T09:54:32;5.18;;;3.55;;
26578;SDS011;14227;47.674;19.320;2023-05-06T09:56:58;9.30;;;4.38;;
26578;SDS011;14227;47.674;19.320;2023-05-06T09:59:26;6.40;;;3.80;;
26578;SDS011;14227;47.674;19.320;2023-05-06T10:01:53;4.05;;;3.47;;
26578;SDS011;14227;47.674;19.320;2023-05-06T10:04:19;6.05;;;4.25;;
26578;SDS011;14227;47.674;19.320;2023-05-06T10:06:47;9.32;;;4.90;;
26578;SDS011;14227;47.674;19.320;2023-05-06T10:09:15;21.85;;;11.95;;
26578;SDS011;14227;47.674;19.320;2023-05-06T10:11:43;6.57;;;4.70;;
26578;SDS011;14227;47.674;19.320;2023-05-06T10:14:11;3.50;;;3.20;;
26578;SDS011;14227;47.674;19.320;2023-05-06T10:16:37;5.78;;;3.60;;
26578;SDS011;14227;47.674;19.320;2023-05-06T10:19:04;7.38;;;3.72;;
26578;SDS011;14227;47.674;19.320;2023-05-06T10:21:32;25.27;;;6.57;;
26578;SDS011;14227;47.674;19.320;2023-05-06T10:24:03;11.68;;;3.97;;
26578;SDS011;14227;47.674;19.320;2023-05-06T10:26:31;15.35;;;4.00;;
26578;SDS011;14227;47.674;19.320;2023-05-06T10:29:00;35.67;;;13.63;;
26578;SDS011;14227;47.674;19.320;2023-05-06T10:31:29;7.07;;;3.35;;
26578;SDS011;14227;47.674;19.320;2023-05-06T10:33:55;9.40;;;3.70;;
26578;SDS011;14227;47.674;19.320;2023-05-06T10:36:25;5.57;;;3.50;;
26578;SDS011;14227;47.674;19.320;2023-05-06T10:38:54;5.72;;;3.85;;
26578;SDS011;14227;47.674;19.320;2023-05-06T10:41:21;6.10;;;3.58;;
26578;SDS011;14227;47.674;19.320;2023-05-06T10:43:50;7.10;;;4.20;;
26578;SDS011;14227;47.674;19.320;2023-05-06T10:46:21;4.65;;;3.88;;
26578;SDS011;14227;47.674;19.320;2023-05-06T10:51:30;10.25;;;4.20;;
26578;SDS011;14227;47.674;19.320;2023-05-06T10:59:05;5.38;;;3.58;;
26578;SDS011;14227;47.674;19.320;2023-05-06T11:01:35;4.93;;;3.22;;
26578;SDS011;14227;47.674;19.320;2023-05-06T11:04:09;7.40;;;3.17;;
26578;SDS011;14227;47.674;19.320;2023-05-06T11:06:40;6.43;;;3.15;;
26578;SDS011;14227;47.674;19.320;2023-05-06T11:09:23;3.78;;;2.90;;
26578;SDS011;14227;47.674;19.320;2023-05-06T11:11:58;5.88;;;3.05;;
26578;SDS011;14227;47.674;19.320;2023-05-06T11:17:05;5.80;;;3.10;;
26578;SDS011;14227;47.674;19.320;2023-05-06T11:19:32;8.05;;;3.60;;
26578;SDS011;14227;47.674;19.320;2023-05-06T11:22:00;5.32;;;3.00;;
26578;SDS011;14227;47.674;19.320;2023-05-06T11:27:04;6.10;;;4.32;;
26578;SDS011;14227;47.674;19.320;2023-05-06T11:29:30;5.68;;;3.30;;
26578;SDS011;14227;47.674;19.320;2023-05-06T11:31:56;5.72;;;2.85;;
26578;SDS011;14227;47.674;19.320;2023-05-06T11:34:23;5.32;;;3.38;;
26578;SDS011;14227;47.674;19.320;2023-05-06T11:37:02;4.25;;;2.95;;
26578;SDS011;14227;47.674;19.320;2023-05-06T11:39:30;7.25;;;3.10;;
26578;SDS011;14227;47.674;19.320;2023-05-06T11:42:06;5.10;;;2.90;;
26578;SDS011;14227;47.674;19.320;2023-05-06T11:44:34;4.88;;;3.17;;
26578;SDS011;14227;47.674;19.320;2023-05-06T11:47:05;10.02;;;3.90;;
26578;SDS011;14227;47.674;19.320;2023-05-06T11:49:39;17.83;;;3.85;;
26578;SDS011;14227;47.674;19.320;2023-05-06T11:52:09;7.30;;;3.88;;
26578;SDS011;14227;47.674;19.320;2023-05-06T11:54:39;10.15;;;4.15;;
26578;SDS011;14227;47.674;19.320;2023-05-06T11:57:07;7.07;;;3.65;;
26578;SDS011;14227;47.674;19.320;2023-05-06T11:59:37;13.32;;;3.90;;
26578;SDS011;14227;47.674;19.320;2023-05-06T12:02:08;9.77;;;3.90;;
26578;SDS011;14227;47.674;19.320;2023-05-06T12:07:03;9.13;;;3.35;;
26578;SDS011;14227;47.674;19.320;2023-05-06T12:09:30;5.30;;;3.63;;
26578;SDS011;14227;47.674;19.320;2023-05-06T12:11:58;8.02;;;4.13;;
26578;SDS011;14227;47.674;19.320;2023-05-06T12:14:25;6.80;;;3.97;;
26578;SDS011;14227;47.674;19.320;2023-05-06T12:16:50;10.57;;;3.78;;
26578;SDS011;14227;47.674;19.320;2023-05-06T12:19:16;7.05;;;4.28;;
26578;SDS011;14227;47.674;19.320;2023-05-06T12:21:42;11.40;;;4.82;;
26578;SDS011;14227;47.674;19.320;2023-05-06T12:24:09;18.08;;;4.75;;
26578;SDS011;14227;47.674;19.320;2023-05-06T12:26:41;24.15;;;4.82;;
26578;SDS011;14227;47.674;19.320;2023-05-06T12:29:08;8.07;;;4.72;;
26578;SDS011;14227;47.674;19.320;2023-05-06T12:31:35;11.30;;;4.60;;
26578;SDS011;14227;47.674;19.320;2023-05-06T12:34:01;16.67;;;5.38;;
26578;SDS011;14227;47.674;19.320;2023-05-06T12:36:27;12.68;;;4.70;;
26578;SDS011;14227;47.674;19.320;2023-05-06T12:38:54;22.88;;;5.22;;
26578;SDS011;14227;47.674;19.320;2023-05-06T12:41:22;9.73;;;5.25;;
26578;SDS011;14227;47.674;19.320;2023-05-06T12:43:49;14.75;;;5.10;;
26578;SDS011;14227;47.674;19.320;2023-05-06T12:46:16;8.52;;;5.20;;
26578;SDS011;14227;47.674;19.320;2023-05-06T12:48:55;12.60;;;5.15;;
26578;SDS011;14227;47.674;19.320;2023-05-06T12:51:27;11.05;;;4.68;;
26578;SDS011;14227;47.674;19.320;2023-05-06T12:53:55;11.95;;;5.05;;
26578;SDS011;14227;47.674;19.320;2023-05-06T12:56:21;12.80;;;5.00;;
26578;SDS011;14227;47.674;19.320;2023-05-06T12:58:57;10.27;;;5.30;;
26578;SDS011;14227;47.674;19.320;2023-05-06T13:01:26;14.05;;;4.40;;
26578;SDS011;14227;47.674;19.320;2023-05-06T13:03:53;12.45;;;5.03;;
26578;SDS011;14227;47.674;19.320;2023-05-06T13:06:20;11.60;;;4.97;;
26578;SDS011;14227;47.674;19.320;2023-05-06T13:08:46;10.70;;;4.68;;
26578;SDS011;14227;47.674;19.320;2023-05-06T13:11:11;8.98;;;4.20;;
26578;SDS011;14227;47.674;19.320;2023-05-06T13:13:37;12.75;;;4.43;;
26578;SDS011;14227;47.674;19.320;2023-05-06T13:16:03;12.27;;;4.60;;
26578;SDS011;14227;47.674;19.320;2023-05-06T13:18:29;9.63;;;4.60;;
26578;SDS011;14227;47.674;19.320;2023-05-06T13:20:55;14.65;;;5.20;;
26578;SDS011;14227;47.674;19.320;2023-05-06T13:23:21;7.65;;;5.55;;
26578;SDS011;14227;47.674;19.320;2023-05-06T13:25:46;30.30;;;7.60;;
26578;SDS011;14227;47.674;19.320;2023-05-06T13:28:12;12.65;;;5.10;;
26578;SDS011;14227;47.674;19.320;2023-05-06T13:30:38;6.60;;;4.97;;
26578;SDS011;14227;47.674;19.320;2023-05-06T13:33:03;14.65;;;5.60;;
26578;SDS011;14227;47.674;19.320;2023-05-06T13:35:29;10.20;;;5.80;;
26578;SDS011;14227;47.674;19.320;2023-05-06T13:37:55;5.55;;;5.00;;
26578;SDS011;14227;47.674;19.320;2023-05-06T13:40:20;12.30;;;5.95;;
26578;SDS011;14227;47.674;19.320;2023-05-06T13:42:46;13.30;;;5.82;;
26578;SDS011;14227;47.674;19.320;2023-05-06T13:45:12;14.25;;;6.13;;
26578;SDS011;14227;47.674;19.320;2023-05-06T13:47:38;12.73;;;6.75;;
26578;SDS011;14227;47.674;19.320;2023-05-06T13:50:04;15.10;;;5.63;;
26578;SDS011;14227;47.674;19.320;2023-05-06T13:52:30;11.05;;;6.32;;
26578;SDS011;14227;47.674;19.320;2023-05-06T13:54:56;7.82;;;5.53;;
26578;SDS011;14227;47.674;19.320;2023-05-06T13:57:22;9.38;;;5.45;;
26578;SDS011;14227;47.674;19.320;2023-05-06T13:59:50;8.60;;;5.20;;
26578;SDS011;14227;47.674;19.320;2023-05-06T14:02:16;6.85;;;5.15;;
26578;SDS011;14227;47.674;19.320;2023-05-06T14:04:41;7.97;;;5.30;;
26578;SDS011;14227;47.674;19.320;2023-05-06T14:07:07;13.13;;;4.90;;
26578;SDS011;14227;47.674;19.320;2023-05-06T14:09:33;6.47;;;4.85;;
26578;SDS011;14227;47.674;19.320;2023-05-06T14:11:59;7.25;;;5.20;;
26578;SDS011;14227;47.674;19.320;2023-05-06T14:14:25;6.72;;;5.13;;
26578;SDS011;14227;47.674;19.320;2023-05-06T14:16:51;15.75;;;5.32;;
26578;SDS011;14227;47.674;19.320;2023-05-06T14:19:18;7.07;;;5.00;;
26578;SDS011;14227;47.674;19.320;2023-05-06T14:21:44;12.38;;;5.50;;
26578;SDS011;14227;47.674;19.320;2023-05-06T14:24:10;5.95;;;5.28;;
26578;SDS011;14227;47.674;19.320;2023-05-06T14:26:37;10.68;;;5.90;;
26578;SDS011;14227;47.674;19.320;2023-05-06T14:29:04;11.48;;;5.97;;
26578;SDS011;14227;47.674;19.320;2023-05-06T14:31:31;8.63;;;6.22;;
26578;SDS011;14227;47.674;19.320;2023-05-06T14:33:57;13.90;;;6.80;;
26578;SDS011;14227;47.674;19.320;2023-05-06T14:36:23;18.58;;;8.02;;
26578;SDS011;14227;47.674;19.320;2023-05-06T14:38:49;13.85;;;9.65;;
26578;SDS011;14227;47.674;19.320;2023-05-06T14:41:14;18.17;;;11.40;;
26578;SDS011;14227;47.674;19.320;2023-05-06T14:43:40;14.90;;;11.40;;
26578;SDS011;14227;47.674;19.320;2023-05-06T14:46:06;23.85;;;13.63;;
26578;SDS011;14227;47.674;19.320;2023-05-06T14:48:31;19.45;;;14.35;;
26578;SDS011;14227;47.674;19.320;2023-05-06T14:50:58;18.50;;;15.23;;